Time;durP1;ratioP1;P1;durP2;ratioP2;P2;SDS_P1;SDS_P2;PMS_P1;PMS_P2;Temp;Humidity;BMP_temperature;BMP_pressure;BME280_temperature;BME280_humidity;BME280_pressure;Samples;Min_cycle;Max_cycle;Signal;HPM_P1;HPM_P2
2023/08/29 00:01:15;;;;;;;3.72;1.83;;;14.50;99.90;;;;;;5063078;28;20049;-84
2023/08/29 00:03:41;;;;;;;3.45;1.90;;;14.50;99.90;;;;;;5051021;28;20692;-84
2023/08/29 00:06:07;;;;;;;3.97;1.55;;;14.70;99.90;;;;;;5059479;28;20419;-84
2023/08/29 00:08:33;;;;;;;4.65;2.10;;;14.50;99.90;;;;;;5071839;28;20071;-84
2023/08/29 00:11:00;;;;;;;4.63;1.75;;;14.40;99.90;;;;;;5065302;28;20047;-84
2023/08/29 00:13:26;;;;;;;5.65;2.03;;;14.40;99.90;;;;;;5059302;28;20032;-84
2023/08/29 00:15:52;;;;;;;5.82;2.13;;;14.30;99.90;;;;;;5064393;28;20028;-84
2023/08/29 00:18:21;;;;;;;3.78;2.00;;;14.30;99.90;;;;;;5062038;28;20099;-84
2023/08/29 00:20:47;;;;;;;4.18;2.00;;;14.20;99.90;;;;;;5085946;28;20040;-84
2023/08/29 00:23:13;;;;;;;6.32;2.20;;;14.20;99.90;;;;;;5060530;28;20052;-84
2023/08/29 00:25:39;;;;;;;4.30;1.70;;;14.10;99.90;;;;;;5057797;28;20044;-84
2023/08/29 00:28:06;;;;;;;4.70;2.10;;;14.00;99.90;;;;;;5062930;28;20498;-84
2023/08/29 00:30:39;;;;;;;3.67;1.70;;;14.00;99.90;;;;;;5057202;28;20040;-84
2023/08/29 00:33:05;;;;;;;3.58;1.55;;;13.90;99.90;;;;;;5062297;28;20142;-84
2023/08/29 00:35:31;;;;;;;4.03;1.30;;;14.00;99.90;;;;;;5057904;28;20041;-84
2023/08/29 00:37:58;;;;;;;4.90;2.10;;;14.00;99.90;;;;;;5063995;28;20032;-84
2023/08/29 00:40:30;;;;;;;2.97;1.60;;;14.00;99.90;;;;;;5076806;28;20037;-84
2023/08/29 00:42:57;;;;;;;3.25;1.75;;;13.90;99.90;;;;;;5059897;28;20567;-84
2023/08/29 00:45:23;;;;;;;4.13;1.38;;;13.90;99.90;;;;;;5050947;28;20033;-84
2023/08/29 00:47:48;;;;;;;4.93;2.30;;;13.90;99.90;;;;;;5053474;28;20029;-84
2023/08/29 00:50:14;;;;;;;3.63;2.03;;;13.80;99.90;;;;;;5051568;28;20048;-84
2023/08/29 00:52:40;;;;;;;5.25;2.03;;;13.80;99.90;;;;;;5058689;28;20119;-84
2023/08/29 00:55:08;;;;;;;6.65;1.92;;;13.70;99.90;;;;;;5055185;28;20082;-84
2023/08/29 00:57:34;;;;;;;6.03;2.17;;;13.80;99.90;;;;;;5059817;28;20178;-84
2023/08/29 00:59:59;;;;;;;4.30;1.52;;;13.70;99.90;;;;;;5037017;28;20137;-84
2023/08/29 01:02:25;;;;;;;4.88;1.92;;;13.80;99.90;;;;;;5051860;28;20327;-84
2023/08/29 01:04:51;;;;;;;9.23;2.50;;;13.80;99.90;;;;;;5047125;28;20057;-84
2023/08/29 01:07:17;;;;;;;4.43;2.28;;;13.70;99.90;;;;;;5050304;28;20532;-84
2023/08/29 01:09:42;;;;;;;4.35;1.90;;;13.70;99.90;;;;;;5063804;28;20103;-84
2023/08/29 01:12:19;;;;;;;4.88;2.20;;;13.70;99.90;;;;;;5049571;28;20036;-84
2023/08/29 01:14:58;;;;;;;3.65;2.15;;;13.70;99.90;;;;;;5050417;28;20045;-84
2023/08/29 01:17:31;;;;;;;3.42;1.70;;;13.70;99.90;;;;;;5051672;28;20045;-83
2023/08/29 01:19:58;;;;;;;4.70;1.98;;;13.70;99.90;;;;;;5060971;28;20033;-84
2023/08/29 01:22:49;;;;;;;3.90;1.80;;;13.70;99.90;;;;;;5060350;28;20040;-83
2023/08/29 01:25:29;;;;;;;4.38;1.67;;;13.70;99.90;;;;;;5083425;28;20048;-84
2023/08/29 01:27:55;;;;;;;3.20;1.60;;;13.80;99.90;;;;;;5040799;28;20154;-84
2023/08/29 01:30:22;;;;;;;4.55;2.03;;;13.70;99.90;;;;;;5095031;28;20060;-83
2023/08/29 01:32:48;;;;;;;5.35;2.00;;;13.70;99.90;;;;;;5057621;28;20045;-84
2023/08/29 01:35:15;;;;;;;4.80;1.83;;;13.70;99.90;;;;;;5061862;28;20041;-84
2023/08/29 01:37:41;;;;;;;4.10;1.85;;;13.60;99.90;;;;;;5058076;28;20043;-84
2023/08/29 01:40:30;;;;;;;8.02;2.65;;;13.60;99.90;;;;;;5059014;28;20796;-84
2023/08/29 01:42:55;;;;;;;3.35;1.95;;;13.50;99.90;;;;;;5055573;28;20403;-84
2023/08/29 01:45:21;;;;;;;6.47;2.53;;;13.50;99.90;;;;;;5055768;28;20039;-84
2023/08/29 01:47:47;;;;;;;6.32;2.47;;;13.50;99.90;;;;;;5087393;28;20036;-84
2023/08/29 01:50:14;;;;;;;9.30;2.55;;;13.50;99.90;;;;;;5066030;28;20036;-84
2023/08/29 01:52:40;;;;;;;6.55;2.70;;;13.40;99.90;;;;;;5064768;28;20040;-83
2023/08/29 01:55:06;;;;;;;4.72;3.13;;;13.40;99.90;;;;;;5057542;28;20514;-84
2023/08/29 01:57:35;;;;;;;4.97;2.58;;;13.30;99.90;;;;;;5055164;28;20044;-84
2023/08/29 02:00:04;;;;;;;5.13;2.00;;;13.20;99.90;;;;;;5059688;28;20040;-84
2023/08/29 02:02:29;;;;;;;5.78;2.47;;;13.20;99.90;;;;;;5056338;28;20115;-84
2023/08/29 02:04:55;;;;;;;4.18;1.63;;;13.10;99.90;;;;;;5061560;28;20131;-84
2023/08/29 02:07:21;;;;;;;7.22;2.83;;;13.20;99.90;;;;;;5061745;28;20052;-84
2023/08/29 02:09:46;;;;;;;3.42;1.67;;;13.20;99.90;;;;;;5055390;28;20044;-84
2023/08/29 02:12:12;;;;;;;3.70;2.17;;;13.20;99.90;;;;;;5042814;28;20119;-84
2023/08/29 02:14:38;;;;;;;5.03;2.10;;;13.20;99.90;;;;;;5059976;28;20028;-84
2023/08/29 02:17:03;;;;;;;3.95;1.50;;;13.20;99.90;;;;;;5087560;28;20056;-84
2023/08/29 02:19:29;;;;;;;4.35;2.25;;;13.20;99.90;;;;;;5059065;28;20043;-84
2023/08/29 02:21:55;;;;;;;6.22;2.55;;;13.20;99.90;;;;;;5046311;28;20043;-84
2023/08/29 02:24:20;;;;;;;5.30;2.22;;;13.10;99.90;;;;;;5054164;28;20033;-84
2023/08/29 02:26:46;;;;;;;4.30;2.22;;;13.10;99.90;;;;;;5058634;28;20498;-84
2023/08/29 02:29:12;;;;;;;4.68;2.63;;;13.00;99.90;;;;;;5059312;28;20053;-84
2023/08/29 02:31:37;;;;;;;5.28;2.40;;;13.20;99.90;;;;;;5063955;28;20685;-84
2023/08/29 02:34:03;;;;;;;6.10;2.50;;;13.00;99.90;;;;;;5044268;28;20349;-84
2023/08/29 02:36:29;;;;;;;4.38;2.50;;;13.00;99.90;;;;;;5054902;28;20433;-84
2023/08/29 02:38:54;;;;;;;4.40;2.53;;;12.90;99.90;;;;;;5067942;28;20416;-84
2023/08/29 02:41:20;;;;;;;3.75;1.58;;;12.90;99.90;;;;;;5050813;28;20094;-84
2023/08/29 02:43:46;;;;;;;4.95;1.88;;;12.90;99.90;;;;;;5054783;28;20035;-84
2023/08/29 02:46:11;;;;;;;4.60;2.17;;;12.90;99.90;;;;;;5046654;28;20048;-83
2023/08/29 02:48:37;;;;;;;3.90;1.73;;;12.90;99.90;;;;;;5061541;28;20041;-84
2023/08/29 02:51:03;;;;;;;3.33;1.63;;;12.90;99.90;;;;;;5049898;28;20519;-84
2023/08/29 02:53:29;;;;;;;4.97;1.70;;;12.90;99.90;;;;;;5059390;28;20041;-84
2023/08/29 02:55:56;;;;;;;3.90;2.00;;;13.00;99.90;;;;;;5057928;28;20040;-84
2023/08/29 02:58:22;;;;;;;4.57;2.33;;;13.00;99.90;;;;;;5054648;28;20052;-83
2023/08/29 03:00:57;;;;;;;6.63;2.40;;;13.00;99.90;;;;;;5057098;28;20041;-83
2023/08/29 03:03:26;;;;;;;6.45;2.40;;;13.00;99.90;;;;;;5053142;28;20036;-84
2023/08/29 03:05:56;;;;;;;3.67;1.80;;;13.00;99.90;;;;;;5073230;28;20064;-84
2023/08/29 03:08:22;;;;;;;5.03;2.15;;;12.90;99.90;;;;;;5050269;28;20049;-84
2023/08/29 03:10:49;;;;;;;4.75;2.33;;;12.90;99.90;;;;;;5051052;28;20053;-84
2023/08/29 03:13:15;;;;;;;4.18;1.75;;;12.80;99.90;;;;;;5051698;28;20033;-83
2023/08/29 03:15:40;;;;;;;5.95;2.95;;;12.70;99.90;;;;;;5056354;28;20545;-84
2023/08/29 03:18:06;;;;;;;4.95;2.17;;;12.70;99.90;;;;;;5049456;28;20139;-84
2023/08/29 03:20:32;;;;;;;5.53;2.28;;;12.60;99.90;;;;;;5057657;28;20075;-84
2023/08/29 03:22:58;;;;;;;5.70;2.85;;;12.60;99.90;;;;;;5054305;28;20725;-84
2023/08/29 03:25:23;;;;;;;3.53;1.85;;;12.60;99.90;;;;;;5058459;28;20110;-84
2023/08/29 03:27:49;;;;;;;4.88;2.08;;;12.70;99.90;;;;;;5052522;28;21627;-83
2023/08/29 03:30:15;;;;;;;4.85;2.33;;;12.50;99.90;;;;;;5052080;28;20073;-83
2023/08/29 03:32:41;;;;;;;4.10;2.45;;;12.40;99.90;;;;;;5067994;28;20545;-83
2023/08/29 03:35:07;;;;;;;4.00;2.13;;;12.40;99.90;;;;;;5055657;28;20500;-83
2023/08/29 03:37:33;;;;;;;4.93;2.47;;;12.40;99.90;;;;;;5051859;28;20361;-84
2023/08/29 03:39:59;;;;;;;5.55;3.28;;;12.40;99.90;;;;;;5059112;28;20090;-84
2023/08/29 03:42:25;;;;;;;3.80;1.88;;;12.40;99.90;;;;;;5057905;28;20471;-84
2023/08/29 03:44:51;;;;;;;4.30;2.20;;;12.30;99.90;;;;;;5059987;28;20048;-83
2023/08/29 03:47:17;;;;;;;4.15;2.17;;;12.40;99.90;;;;;;5058455;28;20387;-84
2023/08/29 03:49:43;;;;;;;5.45;2.30;;;12.40;99.90;;;;;;5064466;28;20040;-84
2023/08/29 03:52:09;;;;;;;4.70;2.78;;;12.40;99.90;;;;;;5055746;28;20105;-84
2023/08/29 03:54:35;;;;;;;4.60;2.03;;;12.40;99.90;;;;;;5055578;28;20093;-84
2023/08/29 03:57:00;;;;;;;4.65;2.05;;;12.50;99.90;;;;;;5089701;28;20044;-84
2023/08/29 03:59:26;;;;;;;5.18;1.98;;;12.40;99.90;;;;;;5061339;28;20043;-84
2023/08/29 04:01:52;;;;;;;3.47;1.92;;;12.40;99.90;;;;;;5055913;28;20040;-83
2023/08/29 04:04:17;;;;;;;4.93;2.25;;;12.40;99.90;;;;;;5059187;28;20493;-84
2023/08/29 04:06:43;;;;;;;5.57;2.75;;;12.40;99.90;;;;;;5056461;28;20124;-83
2023/08/29 04:09:10;;;;;;;5.60;2.78;;;12.40;99.90;;;;;;5057223;28;20037;-84
2023/08/29 04:11:36;;;;;;;8.32;3.20;;;12.40;99.90;;;;;;5042499;28;20063;-84
2023/08/29 04:14:01;;;;;;;4.63;2.38;;;12.40;99.90;;;;;;5059934;28;20471;-84
2023/08/29 04:16:27;;;;;;;4.25;1.83;;;12.40;99.90;;;;;;5057055;28;20048;-85
2023/08/29 04:18:53;;;;;;;5.32;2.60;;;12.40;99.90;;;;;;5062237;28;20064;-85
2023/08/29 04:21:18;;;;;;;4.82;2.28;;;12.40;99.90;;;;;;5066261;28;20394;-85
2023/08/29 04:23:44;;;;;;;4.95;2.22;;;12.60;99.90;;;;;;5058474;28;20041;-83
2023/08/29 04:26:10;;;;;;;5.25;2.80;;;12.50;99.90;;;;;;5083511;28;20036;-83
2023/08/29 04:28:35;;;;;;;5.07;2.50;;;12.40;99.90;;;;;;5059404;28;20097;-82
2023/08/29 04:31:11;;;;;;;5.63;2.75;;;12.40;99.90;;;;;;5062171;28;20480;-84
2023/08/29 04:33:37;;;;;;;5.72;2.78;;;12.40;99.90;;;;;;5059964;28;20570;-83
2023/08/29 04:36:03;;;;;;;5.82;3.40;;;12.40;99.90;;;;;;5046337;28;20098;-84
2023/08/29 04:38:31;;;;;;;4.63;2.35;;;12.30;99.90;;;;;;5064578;28;20033;-83
2023/08/29 04:40:56;;;;;;;4.22;2.30;;;12.30;99.90;;;;;;5050562;28;20841;-83
2023/08/29 04:43:22;;;;;;;6.70;3.05;;;12.30;99.90;;;;;;5061729;28;20199;-83
2023/08/29 04:45:50;;;;;;;5.72;3.30;;;12.30;99.90;;;;;;5062344;28;20037;-83
2023/08/29 04:48:17;;;;;;;4.53;2.65;;;12.20;99.90;;;;;;5066076;28;20075;-83
2023/08/29 04:50:45;;;;;;;4.55;2.20;;;12.10;99.90;;;;;;5048629;28;20091;-84
2023/08/29 04:53:11;;;;;;;4.05;2.33;;;12.10;99.90;;;;;;5054624;28;20045;-84
2023/08/29 04:55:37;;;;;;;4.30;2.35;;;12.10;99.90;;;;;;5054437;28;20052;-87
2023/08/29 04:58:03;;;;;;;5.60;2.67;;;12.20;99.90;;;;;;5083934;28;20480;-87
2023/08/29 05:00:28;;;;;;;4.40;2.00;;;12.10;99.90;;;;;;5050843;28;20033;-87
2023/08/29 05:02:54;;;;;;;5.85;1.88;;;12.10;99.90;;;;;;5057712;28;20090;-88
2023/08/29 05:05:20;;;;;;;4.03;2.00;;;12.10;99.90;;;;;;5062582;28;20056;-87
2023/08/29 05:07:46;;;;;;;6.03;2.63;;;12.20;99.90;;;;;;5063519;28;20037;-87
2023/08/29 05:10:12;;;;;;;5.75;3.28;;;12.20;99.90;;;;;;5046779;28;20444;-89
2023/08/29 05:12:37;;;;;;;6.15;2.45;;;12.20;99.90;;;;;;5056718;28;20037;-88
2023/08/29 05:15:05;;;;;;;5.10;2.38;;;12.20;99.90;;;;;;5058567;28;20104;-89
2023/08/29 05:17:30;;;;;;;4.90;1.83;;;12.10;99.90;;;;;;5053093;28;20040;-89
2023/08/29 05:19:56;;;;;;;3.95;2.00;;;12.10;99.90;;;;;;5062668;28;20037;-88
2023/08/29 05:22:21;;;;;;;5.85;3.47;;;12.10;99.90;;;;;;5060865;28;20131;-88
2023/08/29 05:24:47;;;;;;;4.25;2.20;;;12.10;99.90;;;;;;5055461;28;20040;-89
2023/08/29 05:27:12;;;;;;;4.78;2.35;;;12.10;99.90;;;;;;5055478;28;20041;-88
2023/08/29 05:29:39;;;;;;;5.57;2.53;;;12.10;99.90;;;;;;5056122;28;20112;-87
2023/08/29 05:32:05;;;;;;;7.97;3.17;;;12.10;99.90;;;;;;5063329;28;20395;-88
2023/08/29 05:34:31;;;;;;;5.15;2.53;;;12.10;99.90;;;;;;5051027;28;20051;-90
2023/08/29 05:36:58;;;;;;;4.82;2.20;;;12.30;99.90;;;;;;5063662;28;20055;-88
2023/08/29 05:39:24;;;;;;;5.35;2.20;;;12.10;99.90;;;;;;5045553;28;20044;-85
2023/08/29 05:41:50;;;;;;;7.65;3.58;;;12.10;99.90;;;;;;5051202;28;20118;-85
2023/08/29 05:44:16;;;;;;;5.90;2.65;;;12.10;99.90;;;;;;5059131;28;20044;-85
2023/08/29 05:46:41;;;;;;;5.65;2.20;;;12.10;99.90;;;;;;5056169;28;20120;-85
2023/08/29 05:49:07;;;;;;;4.07;1.90;;;12.10;99.90;;;;;;5054218;28;20069;-84
2023/08/29 05:51:33;;;;;;;6.18;3.35;;;12.10;99.90;;;;;;5064627;28;20037;-84
2023/08/29 05:53:59;;;;;;;5.80;2.50;;;12.10;99.90;;;;;;5051703;28;20040;-84
2023/08/29 05:56:25;;;;;;;8.48;3.50;;;12.10;99.90;;;;;;5038270;28;20098;-85
2023/08/29 05:58:51;;;;;;;7.53;3.28;;;12.10;99.90;;;;;;5054591;28;20055;-84
2023/08/29 06:01:16;;;;;;;5.25;2.63;;;12.10;99.90;;;;;;5054106;28;20547;-84
2023/08/29 06:03:42;;;;;;;4.88;2.60;;;12.10;99.90;;;;;;5060570;28;20402;-85
2023/08/29 06:06:08;;;;;;;4.82;2.42;;;12.10;99.90;;;;;;5056220;28;20407;-86
2023/08/29 06:08:33;;;;;;;5.32;2.47;;;12.50;99.90;;;;;;5053854;28;20143;-86
2023/08/29 06:11:00;;;;;;;4.30;2.30;;;12.10;99.90;;;;;;5058453;28;20051;-84
2023/08/29 06:13:26;;;;;;;5.00;2.90;;;12.20;99.90;;;;;;5062892;28;20547;-85
2023/08/29 06:15:53;;;;;;;6.18;3.15;;;12.70;99.90;;;;;;5058260;28;20562;-85
2023/08/29 06:18:19;;;;;;;7.18;3.10;;;12.20;99.90;;;;;;5059196;28;20032;-85
2023/08/29 06:20:44;;;;;;;4.88;2.45;;;12.20;99.90;;;;;;5058013;28;20035;-85
2023/08/29 06:23:10;;;;;;;6.63;3.72;;;12.20;99.90;;;;;;5061026;28;20063;-84
2023/08/29 06:25:36;;;;;;;6.05;2.55;;;12.20;99.90;;;;;;5057104;28;20041;-84
2023/08/29 06:28:01;;;;;;;6.40;3.85;;;12.30;99.90;;;;;;5036852;28;20064;-84
2023/08/29 06:30:28;;;;;;;6.88;3.67;;;12.30;99.90;;;;;;5049189;28;20115;-85
2023/08/29 06:32:54;;;;;;;5.18;2.80;;;12.60;99.90;;;;;;5056612;28;20044;-84
2023/08/29 06:35:20;;;;;;;5.82;2.83;;;12.40;99.90;;;;;;5041015;28;20044;-85
2023/08/29 06:37:45;;;;;;;6.65;3.00;;;12.50;99.90;;;;;;5053384;28;20095;-84
2023/08/29 06:40:11;;;;;;;8.27;4.00;;;12.50;99.90;;;;;;5061358;28;20055;-90
2023/08/29 06:42:37;;;;;;;4.97;1.88;;;12.50;99.90;;;;;;5053538;28;20461;-90
2023/08/29 06:45:05;;;;;;;4.95;2.75;;;12.50;99.90;;;;;;5050780;28;20048;-91
2023/08/29 06:47:31;;;;;;;5.80;3.25;;;12.60;99.90;;;;;;5049742;28;20044;-90
2023/08/29 06:49:57;;;;;;;5.40;1.98;;;12.60;99.90;;;;;;5038327;28;20044;-90
2023/08/29 06:52:23;;;;;;;4.65;2.70;;;12.70;99.90;;;;;;5062229;28;20033;-90
2023/08/29 06:54:48;;;;;;;4.70;1.92;;;12.70;99.90;;;;;;5054405;28;20033;-91
2023/08/29 06:57:14;;;;;;;4.15;2.00;;;12.80;99.90;;;;;;5052499;28;20040;-90
2023/08/29 06:59:40;;;;;;;5.35;2.65;;;12.90;99.90;;;;;;5054843;28;20078;-91
2023/08/29 07:02:06;;;;;;;7.45;2.40;;;12.90;99.90;;;;;;5052648;28;20098;-90
2023/08/29 07:04:31;;;;;;;6.55;2.58;;;12.90;99.90;;;;;;5050384;28;20045;-91
2023/08/29 07:06:57;;;;;;;5.43;3.35;;;13.10;99.90;;;;;;5053975;28;20477;-90
2023/08/29 07:09:27;;;;;;;5.57;3.03;;;13.10;99.90;;;;;;5057861;28;20078;-90
2023/08/29 07:11:53;;;;;;;6.97;3.03;;;13.20;99.90;;;;;;5058313;28;20044;-91
2023/08/29 07:14:18;;;;;;;6.03;3.30;;;13.30;99.90;;;;;;5054065;28;20084;-91
2023/08/29 07:16:44;;;;;;;6.15;3.20;;;13.40;99.90;;;;;;5050165;28;20151;-90
2023/08/29 07:19:11;;;;;;;5.97;2.70;;;13.50;99.90;;;;;;5049326;28;20041;-91
2023/08/29 07:21:37;;;;;;;6.68;3.40;;;13.60;99.90;;;;;;5048771;28;20044;-90
2023/08/29 07:24:03;;;;;;;6.53;2.85;;;13.70;99.90;;;;;;5044743;28;20687;-92
2023/08/29 07:26:29;;;;;;;5.28;2.97;;;13.80;99.90;;;;;;5072136;28;20067;-91
2023/08/29 07:28:54;;;;;;;7.57;2.80;;;14.00;99.90;;;;;;5073558;28;20090;-90
2023/08/29 07:31:20;;;;;;;5.38;2.30;;;14.10;99.90;;;;;;5080942;28;20065;-91
2023/08/29 07:33:46;;;;;;;6.07;2.30;;;14.20;99.90;;;;;;5076720;28;20036;-91
2023/08/29 07:36:11;;;;;;;5.90;1.85;;;14.30;99.90;;;;;;5079370;28;20060;-90
2023/08/29 07:38:37;;;;;;;7.13;2.28;;;14.40;99.90;;;;;;5077564;28;20085;-90
2023/08/29 07:41:02;;;;;;;4.47;1.50;;;14.50;99.90;;;;;;5081000;28;20049;-91
2023/08/29 07:43:28;;;;;;;5.88;1.73;;;14.60;99.90;;;;;;5077703;28;20036;-90
2023/08/29 07:45:54;;;;;;;5.60;1.90;;;14.70;99.90;;;;;;5077467;28;20097;-91
2023/08/29 07:48:20;;;;;;;4.20;2.22;;;14.80;99.90;;;;;;5071666;28;20029;-91
2023/08/29 07:50:46;;;;;;;4.32;1.50;;;14.90;99.90;;;;;;5059272;28;20115;-91
2023/08/29 07:53:11;;;;;;;5.35;1.90;;;14.90;99.90;;;;;;5069267;28;20041;-89
2023/08/29 07:55:37;;;;;;;4.15;2.00;;;15.40;99.90;;;;;;5068982;28;20041;-92
2023/08/29 07:58:03;;;;;;;7.32;1.92;;;15.10;99.90;;;;;;5071087;28;20037;-91
2023/08/29 08:00:29;;;;;;;2.85;1.42;;;15.20;99.90;;;;;;5065309;28;20440;-91
2023/08/29 08:02:55;;;;;;;6.65;1.67;;;15.30;99.90;;;;;;5067355;28;20041;-90
2023/08/29 08:05:21;;;;;;;7.70;1.30;;;15.30;99.90;;;;;;5060249;28;20495;-90
2023/08/29 08:07:47;;;;;;;4.38;1.10;;;15.40;99.90;;;;;;5090426;28;20043;-91
2023/08/29 08:10:15;;;;;;;2.95;1.10;;;15.30;99.90;;;;;;5054401;28;20105;-92
2023/08/29 08:12:41;;;;;;;4.45;1.17;;;15.50;99.90;;;;;;5055748;28;20048;-91
2023/08/29 08:15:08;;;;;;;3.08;1.00;;;15.80;99.90;;;;;;5059834;28;20486;-91
2023/08/29 08:17:34;;;;;;;3.88;1.40;;;15.60;99.90;;;;;;5054313;28;20037;-91
2023/08/29 08:20:05;;;;;;;5.00;1.10;;;15.70;99.90;;;;;;5034723;28;20448;-92
2023/08/29 08:22:30;;;;;;;3.08;1.40;;;15.80;99.90;;;;;;5053702;28;20069;-91
2023/08/29 08:24:56;;;;;;;3.60;1.27;;;15.80;99.90;;;;;;5042817;28;20072;-91
2023/08/29 08:27:22;;;;;;;2.20;1.00;;;15.90;99.90;;;;;;5035329;28;20045;-91
2023/08/29 08:29:47;;;;;;;3.40;0.90;;;15.90;99.90;;;;;;5058954;28;20033;-91
2023/08/29 08:32:13;;;;;;;5.68;0.98;;;16.10;99.90;;;;;;5052878;28;20049;-91
2023/08/29 08:34:38;;;;;;;3.15;1.30;;;16.10;99.90;;;;;;5051651;28;20037;-92
2023/08/29 08:37:08;;;;;;;2.92;1.23;;;16.20;99.90;;;;;;5062442;28;20052;-92
2023/08/29 08:39:34;;;;;;;4.00;1.00;;;16.30;99.90;;;;;;5063366;28;20488;-91
2023/08/29 08:42:02;;;;;;;3.03;1.00;;;16.40;99.90;;;;;;5058831;28;20052;-92
2023/08/29 08:44:32;;;;;;;2.33;0.93;;;16.50;99.90;;;;;;5054321;28;20068;-91
2023/08/29 08:46:58;;;;;;;3.13;0.80;;;16.60;99.90;;;;;;5058239;28;20037;-91
2023/08/29 08:49:26;;;;;;;1.67;0.70;;;16.70;99.90;;;;;;5056359;28;20041;-91
2023/08/29 08:51:52;;;;;;;4.68;0.88;;;16.70;99.90;;;;;;5056751;28;20059;-91
2023/08/29 08:54:18;;;;;;;1.65;0.70;;;16.80;99.90;;;;;;5034134;28;20053;-91
2023/08/29 08:56:44;;;;;;;3.97;0.95;;;17.00;99.90;;;;;;5051834;28;20561;-92
2023/08/29 08:59:10;;;;;;;1.85;0.85;;;17.20;99.90;;;;;;5056860;28;20499;-92
2023/08/29 09:01:38;;;;;;;2.00;0.90;;;17.30;99.90;;;;;;5059897;28;20040;-91
2023/08/29 09:04:04;;;;;;;3.58;0.80;;;17.40;99.90;;;;;;5052168;28;20360;-92
2023/08/29 09:06:30;;;;;;;2.50;0.73;;;17.40;99.90;;;;;;5051349;28;20095;-91
2023/08/29 09:09:15;;;;;;;2.85;0.77;;;17.40;99.90;;;;;;5050486;28;20041;-92
2023/08/29 09:11:49;;;;;;;3.33;0.80;;;17.60;99.90;;;;;;5052192;28;20488;-91
2023/08/29 09:14:17;;;;;;;2.20;0.68;;;17.60;99.90;;;;;;5057789;28;20055;-91
2023/08/29 09:16:43;;;;;;;1.65;0.52;;;17.80;99.90;;;;;;5051492;28;20080;-90
2023/08/29 09:19:09;;;;;;;2.80;0.95;;;18.00;99.90;;;;;;5050673;28;20037;-90
2023/08/29 09:21:36;;;;;;;1.60;0.52;;;18.10;99.90;;;;;;5055253;28;20036;-90
2023/08/29 09:24:04;;;;;;;1.73;0.55;;;18.20;99.90;;;;;;5050582;28;20033;-90
2023/08/29 09:26:34;;;;;;;2.47;0.60;;;18.30;99.90;;;;;;5059241;28;20044;-91
2023/08/29 09:29:14;;;;;;;1.58;0.70;;;18.50;99.90;;;;;;5055351;28;20083;-92
2023/08/29 09:31:40;;;;;;;2.70;0.70;;;18.70;99.90;;;;;;5083677;28;20029;-90
2023/08/29 09:34:06;;;;;;;2.35;0.88;;;18.70;99.90;;;;;;5056172;28;20414;-90
2023/08/29 09:36:33;;;;;;;1.55;0.70;;;18.70;99.90;;;;;;5050874;28;20483;-91
2023/08/29 09:39:00;;;;;;;4.10;0.80;;;18.70;99.90;;;;;;5051462;28;20041;-90
2023/08/29 09:41:29;;;;;;;2.00;0.70;;;18.70;99.90;;;;;;5051506;28;20037;-90
2023/08/29 09:43:55;;;;;;;3.08;0.60;;;18.70;99.90;;;;;;5042934;28;20114;-90
2023/08/29 09:46:21;;;;;;;2.80;0.60;;;18.70;99.90;;;;;;5051138;28;20114;-91
2023/08/29 09:48:55;;;;;;;1.33;0.60;;;18.60;99.90;;;;;;5061422;28;20045;-92
2023/08/29 09:51:23;;;;;;;2.67;0.70;;;18.50;99.90;;;;;;5050964;28;20037;-91
2023/08/29 09:53:50;;;;;;;3.75;0.70;;;18.40;99.90;;;;;;5049978;28;20040;-90
2023/08/29 09:56:19;;;;;;;1.80;0.60;;;18.30;99.90;;;;;;5055208;28;20048;-90
2023/08/29 09:58:47;;;;;;;1.25;0.43;;;18.20;99.90;;;;;;5049913;28;20029;-90
2023/08/29 10:01:14;;;;;;;3.00;0.60;;;18.20;99.90;;;;;;5055815;28;20455;-90
2023/08/29 10:03:41;;;;;;;1.45;0.50;;;18.10;99.90;;;;;;5050477;28;20040;-90
2023/08/29 10:06:09;;;;;;;2.45;0.80;;;18.10;99.90;;;;;;5055938;28;20052;-90
2023/08/29 10:08:43;;;;;;;1.35;0.60;;;18.10;99.90;;;;;;5050880;28;20037;-90
2023/08/29 10:11:09;;;;;;;1.83;0.60;;;18.10;99.90;;;;;;5050764;28;20051;-90
2023/08/29 10:13:36;;;;;;;1.05;0.50;;;18.10;99.90;;;;;;5049334;28;20494;-89
2023/08/29 10:16:04;;;;;;;2.53;0.70;;;18.10;99.90;;;;;;5052933;28;20076;-90
2023/08/29 10:18:30;;;;;;;1.42;0.50;;;18.10;99.90;;;;;;5052247;28;20033;-92
2023/08/29 10:20:59;;;;;;;1.90;0.70;;;18.20;99.90;;;;;;5049606;28;20439;-91
2023/08/29 10:23:26;;;;;;;2.53;0.50;;;18.30;99.90;;;;;;5045368;28;20048;-90
2023/08/29 10:25:52;;;;;;;2.22;0.57;;;18.50;99.90;;;;;;5056284;28;20037;-91
2023/08/29 10:28:18;;;;;;;2.30;0.70;;;18.70;99.90;;;;;;5051387;28;20059;-91
2023/08/29 10:30:51;;;;;;;1.17;0.55;;;18.80;99.90;;;;;;5055099;28;20045;-91
2023/08/29 10:33:19;;;;;;;1.95;0.70;;;18.90;99.90;;;;;;5049441;28;20056;-91
2023/08/29 10:35:48;;;;;;;1.48;0.50;;;19.00;99.90;;;;;;5050660;28;20041;-91
2023/08/29 10:38:15;;;;;;;3.13;0.60;;;19.10;99.90;;;;;;5052583;28;20559;-91
2023/08/29 10:40:41;;;;;;;2.35;0.43;;;19.20;99.90;;;;;;5044122;28;20415;-90
2023/08/29 10:43:21;;;;;;;1.58;0.50;;;19.20;99.90;;;;;;5082330;28;20041;-91
2023/08/29 10:46:01;;;;;;;1.60;0.43;;;19.20;99.90;;;;;;5036876;28;20100;-90
2023/08/29 10:48:30;;;;;;;1.65;0.38;;;19.20;99.90;;;;;;5055027;28;20068;-90
2023/08/29 10:51:19;;;;;;;2.00;0.50;;;19.10;99.90;;;;;;5053443;28;20064;-89
2023/08/29 10:53:53;;;;;;;1.15;0.50;;;19.10;99.90;;;;;;5057409;28;20090;-91
2023/08/29 10:56:24;;;;;;;1.75;0.40;;;19.10;99.90;;;;;;5048680;28;20124;-90
2023/08/29 10:58:50;;;;;;;2.45;0.60;;;19.10;99.90;;;;;;5070595;28;20044;-90
2023/08/29 11:01:28;;;;;;;1.85;0.50;;;19.20;99.90;;;;;;5057270;28;20353;-91
2023/08/29 11:04:00;;;;;;;2.40;0.50;;;19.30;99.90;;;;;;5061784;28;20121;-91
2023/08/29 11:06:47;;;;;;;1.80;0.60;;;19.30;99.90;;;;;;5058113;28;20049;-90
2023/08/29 11:09:23;;;;;;;3.28;0.70;;;19.40;99.90;;;;;;5056903;28;20098;-90
2023/08/29 11:12:12;;;;;;;2.78;0.63;;;19.50;99.90;;;;;;5057168;28;20037;-91
2023/08/29 11:14:51;;;;;;;2.35;0.70;;;19.60;99.90;;;;;;5037592;28;20037;-91
2023/08/29 11:17:23;;;;;;;1.63;0.50;;;19.70;99.90;;;;;;5060290;28;20060;-91
2023/08/29 11:19:56;;;;;;;1.30;0.50;;;19.80;99.90;;;;;;5058486;28;20430;-91
2023/08/29 11:22:25;;;;;;;2.00;0.60;;;19.90;99.90;;;;;;5056868;28;20040;-91
2023/08/29 11:24:55;;;;;;;1.27;0.70;;;20.10;99.90;;;;;;5056470;28;20178;-91
2023/08/29 11:27:25;;;;;;;1.48;0.47;;;20.20;99.90;;;;;;5055677;28;20036;-91
2023/08/29 11:29:55;;;;;;;1.90;0.52;;;20.30;99.90;;;;;;5057731;28;20049;-90
2023/08/29 11:32:21;;;;;;;2.20;0.63;;;20.40;99.90;;;;;;5053516;28;20025;-90
2023/08/29 11:34:55;;;;;;;1.80;0.60;;;20.50;99.90;;;;;;5057429;28;20386;-90
2023/08/29 11:37:24;;;;;;;2.08;0.60;;;20.70;99.90;;;;;;5058864;28;20115;-90
2023/08/29 11:39:58;;;;;;;2.17;1.02;;;20.80;99.90;;;;;;5052940;28;20048;-89
2023/08/29 11:42:28;;;;;;;;;;;20.70;99.90;;;;;;5056781;28;20142;-91
2023/08/29 11:44:54;;;;;;;2.03;0.68;;;20.70;99.90;;;;;;5085640;28;19932;-91
2023/08/29 11:47:19;;;;;;;1.85;0.75;;;20.50;99.90;;;;;;5053719;28;20048;-91
2023/08/29 11:49:49;;;;;;;1.77;0.70;;;20.40;99.90;;;;;;5054405;28;20391;-90
2023/08/29 11:52:18;;;;;;;1.35;0.70;;;20.40;99.90;;;;;;5062080;28;20045;-91
2023/08/29 11:54:48;;;;;;;4.28;1.17;;;20.30;99.90;;;;;;5053983;28;20114;-91
2023/08/29 11:57:15;;;;;;;1.48;0.80;;;20.30;99.90;;;;;;5055974;28;20044;-85
2023/08/29 11:59:45;;;;;;;3.08;1.10;;;20.20;99.90;;;;;;5059611;28;20033;-90
2023/08/29 12:02:16;;;;;;;2.42;0.80;;;20.20;99.90;;;;;;5055723;28;20124;-92
2023/08/29 12:04:46;;;;;;;3.60;0.88;;;20.20;99.90;;;;;;5053563;28;20491;-93
2023/08/29 12:07:16;;;;;;;3.65;1.00;;;20.20;99.90;;;;;;5060114;28;20049;-90
2023/08/29 12:09:44;;;;;;;3.17;0.90;;;20.20;99.90;;;;;;5062012;28;20052;-90
2023/08/29 12:12:36;;;;;;;2.85;0.80;;;20.20;99.90;;;;;;5067619;28;20037;-91
2023/08/29 12:15:05;;;;;;;3.97;0.90;;;20.20;99.90;;;;;;5051453;28;20041;-91
2023/08/29 12:17:42;;;;;;;3.53;1.10;;;20.20;99.90;;;;;;5053204;28;20044;-90
2023/08/29 12:20:13;;;;;;;2.17;1.08;;;20.20;99.90;;;;;;5051478;28;20044;-92
2023/08/29 12:22:42;;;;;;;3.90;1.10;;;20.30;99.90;;;;;;5081814;28;20033;-91
2023/08/29 12:25:09;;;;;;;2.33;0.80;;;20.30;99.90;;;;;;5052097;28;20424;-93
2023/08/29 12:27:35;;;;;;;3.10;1.52;;;20.30;99.90;;;;;;5055889;28;20036;-91
2023/08/29 12:30:01;;;;;;;2.15;1.05;;;20.30;99.90;;;;;;5057355;28;20121;-91
2023/08/29 12:32:28;;;;;;;2.80;1.10;;;20.30;99.90;;;;;;5054986;28;20460;-90
2023/08/29 12:34:57;;;;;;;3.53;0.90;;;20.30;99.90;;;;;;5061373;28;20055;-84
2023/08/29 12:37:23;;;;;;;2.92;0.90;;;20.30;99.90;;;;;;5056985;28;20029;-85
2023/08/29 12:39:49;;;;;;;3.13;1.40;;;20.30;99.90;;;;;;5050006;28;20395;-83
2023/08/29 12:42:16;;;;;;;2.88;1.40;;;20.40;99.90;;;;;;5056242;28;20124;-83
2023/08/29 12:44:42;;;;;;;4.30;1.30;;;20.30;99.90;;;;;;5050918;28;20043;-84
2023/08/29 12:47:08;;;;;;;2.50;1.25;;;20.30;99.90;;;;;;5050150;28;20036;-84
2023/08/29 12:49:35;;;;;;;1.98;0.88;;;20.30;99.90;;;;;;5051080;28;20099;-84